sensor_id;sensor_type;location;lat;lon;timestamp;P1;durP1;ratioP1;P2;durP2;ratioP2
66175;SDS011;52977;44.816;20.538;2023-03-01T00:01:25;61.80;;;19.95;;
66175;SDS011;52977;44.816;20.538;2023-03-01T00:03:55;68.97;;;18.23;;
66175;SDS011;52977;44.816;20.538;2023-03-01T00:06:21;63.47;;;18.67;;
66175;SDS011;52977;44.816;20.538;2023-03-01T00:08:47;61.65;;;18.38;;
66175;SDS011;52977;44.816;20.538;2023-03-01T00:13:42;64.05;;;19.38;;
66175;SDS011;52977;44.816;20.538;2023-03-01T00:16:12;58.65;;;17.45;;
66175;SDS011;52977;44.816;20.538;2023-03-01T00:18:40;55.97;;;18.30;;
66175;SDS011;52977;44.816;20.538;2023-03-01T00:21:06;59.03;;;17.52;;
66175;SDS011;52977;44.816;20.538;2023-03-01T00:23:33;63.95;;;20.70;;
66175;SDS011;52977;44.816;20.538;2023-03-01T00:26:00;63.17;;;18.98;;
66175;SDS011;52977;44.816;20.538;2023-03-01T00:28:26;57.85;;;18.35;;
66175;SDS011;52977;44.816;20.538;2023-03-01T00:30:52;65.40;;;18.58;;
66175;SDS011;52977;44.816;20.538;2023-03-01T00:33:17;59.03;;;18.65;;
66175;SDS011;52977;44.816;20.538;2023-03-01T00:35:43;64.57;;;19.33;;
66175;SDS011;52977;44.816;20.538;2023-03-01T00:38:09;62.83;;;20.58;;
66175;SDS011;52977;44.816;20.538;2023-03-01T00:40:35;80.90;;;23.05;;
66175;SDS011;52977;44.816;20.538;2023-03-01T00:43:02;68.45;;;20.17;;
66175;SDS011;52977;44.816;20.538;2023-03-01T00:45:29;78.97;;;21.85;;
66175;SDS011;52977;44.816;20.538;2023-03-01T00:47:57;72.53;;;20.20;;
66175;SDS011;52977;44.816;20.538;2023-03-01T00:50:23;71.43;;;19.95;;
66175;SDS011;52977;44.816;20.538;2023-03-01T00:52:52;65.88;;;19.67;;
66175;SDS011;52977;44.816;20.538;2023-03-01T00:55:21;63.90;;;19.10;;
66175;SDS011;52977;44.816;20.538;2023-03-01T00:57:47;63.58;;;19.33;;
66175;SDS011;52977;44.816;20.538;2023-03-01T01:00:13;62.40;;;18.95;;
66175;SDS011;52977;44.816;20.538;2023-03-01T01:02:39;64.07;;;19.38;;
66175;SDS011;52977;44.816;20.538;2023-03-01T01:05:05;72.57;;;20.60;;
66175;SDS011;52977;44.816;20.538;2023-03-01T01:07:32;60.80;;;19.75;;
66175;SDS011;52977;44.816;20.538;2023-03-01T01:09:57;63.97;;;19.92;;
66175;SDS011;52977;44.816;20.538;2023-03-01T01:12:23;58.00;;;20.13;;
66175;SDS011;52977;44.816;20.538;2023-03-01T01:14:49;59.90;;;18.52;;
66175;SDS011;52977;44.816;20.538;2023-03-01T01:17:14;71.15;;;20.08;;
66175;SDS011;52977;44.816;20.538;2023-03-01T01:19:40;63.60;;;19.23;;
66175;SDS011;52977;44.816;20.538;2023-03-01T01:22:05;54.42;;;18.23;;
66175;SDS011;52977;44.816;20.538;2023-03-01T01:24:31;67.90;;;21.23;;
66175;SDS011;52977;44.816;20.538;2023-03-01T01:26:57;63.60;;;20.23;;
66175;SDS011;52977;44.816;20.538;2023-03-01T01:29:22;61.63;;;20.52;;
66175;SDS011;52977;44.816;20.538;2023-03-01T01:31:49;66.22;;;20.77;;
66175;SDS011;52977;44.816;20.538;2023-03-01T01:34:16;66.07;;;20.83;;
66175;SDS011;52977;44.816;20.538;2023-03-01T01:36:48;61.88;;;20.15;;
66175;SDS011;52977;44.816;20.538;2023-03-01T01:41:42;51.85;;;16.60;;
66175;SDS011;52977;44.816;20.538;2023-03-01T01:44:22;61.25;;;18.17;;
66175;SDS011;52977;44.816;20.538;2023-03-01T01:46:53;63.58;;;19.80;;
66175;SDS011;52977;44.816;20.538;2023-03-01T01:49:38;64.15;;;20.30;;
66175;SDS011;52977;44.816;20.538;2023-03-01T01:52:18;54.50;;;18.90;;
66175;SDS011;52977;44.816;20.538;2023-03-01T01:54:53;59.92;;;20.02;;
66175;SDS011;52977;44.816;20.538;2023-03-01T01:57:27;59.03;;;19.05;;
66175;SDS011;52977;44.816;20.538;2023-03-01T02:00:00;63.90;;;20.67;;
66175;SDS011;52977;44.816;20.538;2023-03-01T02:02:38;53.85;;;18.02;;
66175;SDS011;52977;44.816;20.538;2023-03-01T02:07:48;56.13;;;17.98;;
66175;SDS011;52977;44.816;20.538;2023-03-01T02:10:18;60.40;;;18.77;;
66175;SDS011;52977;44.816;20.538;2023-03-01T02:12:46;56.83;;;18.95;;
66175;SDS011;52977;44.816;20.538;2023-03-01T02:15:13;57.35;;;19.15;;
66175;SDS011;52977;44.816;20.538;2023-03-01T02:17:39;55.55;;;20.00;;
66175;SDS011;52977;44.816;20.538;2023-03-01T02:22:34;59.40;;;19.33;;
66175;SDS011;52977;44.816;20.538;2023-03-01T02:30:13;54.20;;;18.83;;
66175;SDS011;52977;44.816;20.538;2023-03-01T02:32:42;52.15;;;19.08;;
66175;SDS011;52977;44.816;20.538;2023-03-01T02:35:09;54.75;;;16.98;;
66175;SDS011;52977;44.816;20.538;2023-03-01T02:37:39;55.22;;;21.33;;
66175;SDS011;52977;44.816;20.538;2023-03-01T02:40:07;65.75;;;23.55;;
66175;SDS011;52977;44.816;20.538;2023-03-01T02:42:44;63.88;;;25.73;;
66175;SDS011;52977;44.816;20.538;2023-03-01T02:45:14;78.20;;;28.25;;
66175;SDS011;52977;44.816;20.538;2023-03-01T02:47:42;75.53;;;28.92;;
66175;SDS011;52977;44.816;20.538;2023-03-01T02:53:16;73.43;;;29.58;;
66175;SDS011;52977;44.816;20.538;2023-03-01T02:55:53;70.32;;;28.95;;
66175;SDS011;52977;44.816;20.538;2023-03-01T02:58:20;77.43;;;30.08;;
66175;SDS011;52977;44.816;20.538;2023-03-01T03:00:46;75.32;;;29.52;;
66175;SDS011;52977;44.816;20.538;2023-03-01T03:03:15;79.75;;;31.35;;
66175;SDS011;52977;44.816;20.538;2023-03-01T03:05:44;73.07;;;29.48;;
66175;SDS011;52977;44.816;20.538;2023-03-01T03:08:11;67.82;;;28.17;;
66175;SDS011;52977;44.816;20.538;2023-03-01T03:10:39;70.78;;;28.73;;
66175;SDS011;52977;44.816;20.538;2023-03-01T03:13:07;72.57;;;28.48;;
66175;SDS011;52977;44.816;20.538;2023-03-01T03:15:38;71.20;;;26.85;;
66175;SDS011;52977;44.816;20.538;2023-03-01T03:18:06;64.25;;;26.90;;
66175;SDS011;52977;44.816;20.538;2023-03-01T03:20:33;64.75;;;26.40;;
66175;SDS011;52977;44.816;20.538;2023-03-01T03:22:59;58.83;;;23.75;;
66175;SDS011;52977;44.816;20.538;2023-03-01T03:25:26;63.15;;;24.67;;
66175;SDS011;52977;44.816;20.538;2023-03-01T03:27:53;52.22;;;22.40;;
66175;SDS011;52977;44.816;20.538;2023-03-01T03:30:22;56.20;;;23.50;;
66175;SDS011;52977;44.816;20.538;2023-03-01T03:32:50;61.40;;;23.73;;
66175;SDS011;52977;44.816;20.538;2023-03-01T03:35:23;62.20;;;24.52;;
66175;SDS011;52977;44.816;20.538;2023-03-01T03:37:51;59.17;;;22.52;;
66175;SDS011;52977;44.816;20.538;2023-03-01T03:40:32;53.75;;;21.67;;
66175;SDS011;52977;44.816;20.538;2023-03-01T03:43:03;50.67;;;20.58;;
66175;SDS011;52977;44.816;20.538;2023-03-01T03:45:30;58.90;;;21.65;;
66175;SDS011;52977;44.816;20.538;2023-03-01T03:47:58;54.75;;;21.73;;
66175;SDS011;52977;44.816;20.538;2023-03-01T03:50:25;54.22;;;22.00;;
66175;SDS011;52977;44.816;20.538;2023-03-01T03:52:50;52.33;;;21.33;;
66175;SDS011;52977;44.816;20.538;2023-03-01T03:55:16;56.60;;;22.50;;
66175;SDS011;52977;44.816;20.538;2023-03-01T03:57:45;56.78;;;21.73;;
66175;SDS011;52977;44.816;20.538;2023-03-01T04:00:17;51.50;;;20.27;;
66175;SDS011;52977;44.816;20.538;2023-03-01T04:02:46;46.53;;;19.35;;
66175;SDS011;52977;44.816;20.538;2023-03-01T04:05:14;50.22;;;18.98;;
66175;SDS011;52977;44.816;20.538;2023-03-01T04:07:42;51.42;;;19.75;;
66175;SDS011;52977;44.816;20.538;2023-03-01T04:10:13;45.80;;;17.67;;
66175;SDS011;52977;44.816;20.538;2023-03-01T04:12:42;49.88;;;20.00;;
66175;SDS011;52977;44.816;20.538;2023-03-01T04:15:09;45.00;;;18.75;;
66175;SDS011;52977;44.816;20.538;2023-03-01T04:17:43;40.90;;;17.20;;
66175;SDS011;52977;44.816;20.538;2023-03-01T04:20:14;37.95;;;15.27;;
66175;SDS011;52977;44.816;20.538;2023-03-01T04:22:43;42.28;;;16.88;;
66175;SDS011;52977;44.816;20.538;2023-03-01T04:25:12;47.88;;;18.85;;
66175;SDS011;52977;44.816;20.538;2023-03-01T04:27:39;49.53;;;21.08;;
66175;SDS011;52977;44.816;20.538;2023-03-01T04:30:05;48.83;;;21.10;;
66175;SDS011;52977;44.816;20.538;2023-03-01T04:32:32;55.03;;;21.77;;
66175;SDS011;52977;44.816;20.538;2023-03-01T04:34:57;46.88;;;20.88;;
66175;SDS011;52977;44.816;20.538;2023-03-01T04:37:23;47.67;;;21.10;;
66175;SDS011;52977;44.816;20.538;2023-03-01T04:39:49;50.20;;;20.48;;
66175;SDS011;52977;44.816;20.538;2023-03-01T04:42:15;50.25;;;20.63;;
66175;SDS011;52977;44.816;20.538;2023-03-01T04:44:42;47.28;;;20.83;;
66175;SDS011;52977;44.816;20.538;2023-03-01T04:47:08;51.47;;;21.15;;
66175;SDS011;52977;44.816;20.538;2023-03-01T04:49:34;44.53;;;18.13;;
66175;SDS011;52977;44.816;20.538;2023-03-01T04:52:00;42.47;;;17.75;;
66175;SDS011;52977;44.816;20.538;2023-03-01T04:54:30;43.85;;;18.95;;
66175;SDS011;52977;44.816;20.538;2023-03-01T04:56:57;43.08;;;17.75;;
66175;SDS011;52977;44.816;20.538;2023-03-01T04:59:23;43.58;;;19.13;;
66175;SDS011;52977;44.816;20.538;2023-03-01T05:01:50;45.40;;;18.77;;
66175;SDS011;52977;44.816;20.538;2023-03-01T05:04:21;38.63;;;17.08;;
66175;SDS011;52977;44.816;20.538;2023-03-01T05:06:48;43.35;;;18.50;;
66175;SDS011;52977;44.816;20.538;2023-03-01T05:09:15;40.47;;;16.50;;
66175;SDS011;52977;44.816;20.538;2023-03-01T05:11:41;38.03;;;15.95;;
66175;SDS011;52977;44.816;20.538;2023-03-01T05:14:08;39.08;;;15.32;;
66175;SDS011;52977;44.816;20.538;2023-03-01T05:16:35;35.58;;;14.52;;
66175;SDS011;52977;44.816;20.538;2023-03-01T05:19:02;32.75;;;13.15;;
66175;SDS011;52977;44.816;20.538;2023-03-01T05:21:41;28.65;;;12.57;;
66175;SDS011;52977;44.816;20.538;2023-03-01T05:24:27;28.48;;;12.75;;
66175;SDS011;52977;44.816;20.538;2023-03-01T05:26:54;27.05;;;11.63;;
66175;SDS011;52977;44.816;20.538;2023-03-01T05:29:23;29.17;;;11.00;;
66175;SDS011;52977;44.816;20.538;2023-03-01T05:31:51;20.60;;;9.40;;
66175;SDS011;52977;44.816;20.538;2023-03-01T05:34:22;19.45;;;8.70;;
66175;SDS011;52977;44.816;20.538;2023-03-01T05:36:49;21.83;;;9.82;;
66175;SDS011;52977;44.816;20.538;2023-03-01T05:39:19;22.40;;;9.27;;
66175;SDS011;52977;44.816;20.538;2023-03-01T05:41:59;19.17;;;8.95;;
66175;SDS011;52977;44.816;20.538;2023-03-01T05:44:27;23.23;;;9.40;;
66175;SDS011;52977;44.816;20.538;2023-03-01T05:46:54;22.55;;;8.88;;
66175;SDS011;52977;44.816;20.538;2023-03-01T05:49:21;21.20;;;9.07;;
66175;SDS011;52977;44.816;20.538;2023-03-01T05:52:07;21.02;;;8.50;;
66175;SDS011;52977;44.816;20.538;2023-03-01T05:54:33;22.17;;;8.20;;
66175;SDS011;52977;44.816;20.538;2023-03-01T05:57:00;20.88;;;8.30;;
66175;SDS011;52977;44.816;20.538;2023-03-01T05:59:26;15.32;;;7.32;;
66175;SDS011;52977;44.816;20.538;2023-03-01T06:01:52;18.15;;;7.85;;
66175;SDS011;52977;44.816;20.538;2023-03-01T06:04:19;17.67;;;7.15;;
66175;SDS011;52977;44.816;20.538;2023-03-01T06:06:45;21.15;;;7.97;;
66175;SDS011;52977;44.816;20.538;2023-03-01T06:09:11;17.65;;;6.95;;
66175;SDS011;52977;44.816;20.538;2023-03-01T06:11:37;23.10;;;10.07;;
66175;SDS011;52977;44.816;20.538;2023-03-01T06:14:03;35.00;;;13.68;;
66175;SDS011;52977;44.816;20.538;2023-03-01T06:16:32;23.55;;;9.48;;
66175;SDS011;52977;44.816;20.538;2023-03-01T06:18:58;22.98;;;9.07;;
66175;SDS011;52977;44.816;20.538;2023-03-01T06:21:24;20.33;;;8.10;;
66175;SDS011;52977;44.816;20.538;2023-03-01T06:23:50;16.45;;;7.28;;
66175;SDS011;52977;44.816;20.538;2023-03-01T06:26:17;21.10;;;8.38;;
66175;SDS011;52977;44.816;20.538;2023-03-01T06:28:43;14.85;;;7.25;;
66175;SDS011;52977;44.816;20.538;2023-03-01T06:31:11;15.15;;;7.38;;
66175;SDS011;52977;44.816;20.538;2023-03-01T06:33:37;17.83;;;8.10;;
66175;SDS011;52977;44.816;20.538;2023-03-01T06:36:03;17.23;;;7.68;;
66175;SDS011;52977;44.816;20.538;2023-03-01T06:38:29;18.10;;;8.77;;
66175;SDS011;52977;44.816;20.538;2023-03-01T06:40:54;19.50;;;8.15;;
66175;SDS011;52977;44.816;20.538;2023-03-01T06:43:22;20.17;;;7.90;;
66175;SDS011;52977;44.816;20.538;2023-03-01T06:45:49;24.35;;;9.15;;
66175;SDS011;52977;44.816;20.538;2023-03-01T06:48:15;21.40;;;8.75;;
66175;SDS011;52977;44.816;20.538;2023-03-01T06:50:42;26.17;;;10.35;;
66175;SDS011;52977;44.816;20.538;2023-03-01T06:53:08;41.63;;;13.90;;
66175;SDS011;52977;44.816;20.538;2023-03-01T06:55:35;38.60;;;12.82;;
66175;SDS011;52977;44.816;20.538;2023-03-01T06:58:01;28.95;;;11.88;;
66175;SDS011;52977;44.816;20.538;2023-03-01T07:00:28;29.52;;;10.88;;
66175;SDS011;52977;44.816;20.538;2023-03-01T07:02:56;21.52;;;8.65;;
66175;SDS011;52977;44.816;20.538;2023-03-01T07:05:24;23.02;;;9.85;;
66175;SDS011;52977;44.816;20.538;2023-03-01T07:07:49;23.05;;;9.15;;
66175;SDS011;52977;44.816;20.538;2023-03-01T07:10:15;20.75;;;8.60;;
66175;SDS011;52977;44.816;20.538;2023-03-01T07:12:40;22.83;;;9.13;;
66175;SDS011;52977;44.816;20.538;2023-03-01T07:15:08;21.35;;;8.77;;
66175;SDS011;52977;44.816;20.538;2023-03-01T07:17:34;23.08;;;9.77;;
66175;SDS011;52977;44.816;20.538;2023-03-01T07:20:00;23.75;;;9.63;;
66175;SDS011;52977;44.816;20.538;2023-03-01T07:22:26;22.45;;;9.50;;
66175;SDS011;52977;44.816;20.538;2023-03-01T07:24:52;24.13;;;9.82;;
66175;SDS011;52977;44.816;20.538;2023-03-01T07:27:18;24.08;;;10.00;;
66175;SDS011;52977;44.816;20.538;2023-03-01T07:29:44;24.33;;;10.48;;
66175;SDS011;52977;44.816;20.538;2023-03-01T07:32:10;23.42;;;10.40;;
66175;SDS011;52977;44.816;20.538;2023-03-01T07:34:36;21.85;;;9.98;;
66175;SDS011;52977;44.816;20.538;2023-03-01T07:37:02;18.77;;;9.25;;
66175;SDS011;52977;44.816;20.538;2023-03-01T07:39:28;25.25;;;10.40;;
66175;SDS011;52977;44.816;20.538;2023-03-01T07:41:54;24.50;;;9.27;;
66175;SDS011;52977;44.816;20.538;2023-03-01T07:44:21;22.25;;;8.60;;
66175;SDS011;52977;44.816;20.538;2023-03-01T07:46:46;30.88;;;11.45;;
66175;SDS011;52977;44.816;20.538;2023-03-01T07:49:12;24.45;;;9.73;;
66175;SDS011;52977;44.816;20.538;2023-03-01T07:51:38;25.33;;;11.02;;
66175;SDS011;52977;44.816;20.538;2023-03-01T07:54:04;23.85;;;9.95;;
66175;SDS011;52977;44.816;20.538;2023-03-01T07:56:30;23.50;;;10.20;;
66175;SDS011;52977;44.816;20.538;2023-03-01T07:58:55;25.60;;;10.10;;
66175;SDS011;52977;44.816;20.538;2023-03-01T08:01:22;30.27;;;10.27;;
66175;SDS011;52977;44.816;20.538;2023-03-01T08:03:48;25.52;;;10.75;;
66175;SDS011;52977;44.816;20.538;2023-03-01T08:06:16;25.35;;;9.50;;
66175;SDS011;52977;44.816;20.538;2023-03-01T08:08:44;22.50;;;10.63;;
66175;SDS011;52977;44.816;20.538;2023-03-01T08:11:11;25.60;;;10.18;;
66175;SDS011;52977;44.816;20.538;2023-03-01T08:13:39;24.58;;;9.82;;
66175;SDS011;52977;44.816;20.538;2023-03-01T08:16:10;22.27;;;9.43;;
66175;SDS011;52977;44.816;20.538;2023-03-01T08:18:38;21.58;;;8.73;;
66175;SDS011;52977;44.816;20.538;2023-03-01T08:21:08;19.48;;;8.27;;
66175;SDS011;52977;44.816;20.538;2023-03-01T08:23:38;19.65;;;7.65;;
66175;SDS011;52977;44.816;20.538;2023-03-01T08:26:12;19.30;;;7.60;;
66175;SDS011;52977;44.816;20.538;2023-03-01T08:28:42;19.67;;;8.10;;
66175;SDS011;52977;44.816;20.538;2023-03-01T08:33:50;16.25;;;7.18;;
66175;SDS011;52977;44.816;20.538;2023-03-01T08:36:24;14.90;;;6.57;;
66175;SDS011;52977;44.816;20.538;2023-03-01T08:38:52;14.27;;;6.22;;
66175;SDS011;52977;44.816;20.538;2023-03-01T08:41:19;12.20;;;5.43;;
66175;SDS011;52977;44.816;20.538;2023-03-01T08:43:45;13.20;;;5.68;;
66175;SDS011;52977;44.816;20.538;2023-03-01T08:46:11;12.40;;;5.20;;
66175;SDS011;52977;44.816;20.538;2023-03-01T08:48:38;10.25;;;4.78;;
66175;SDS011;52977;44.816;20.538;2023-03-01T08:51:09;13.30;;;4.90;;
66175;SDS011;52977;44.816;20.538;2023-03-01T08:53:38;10.40;;;4.35;;
66175;SDS011;52977;44.816;20.538;2023-03-01T08:56:05;10.18;;;4.22;;
66175;SDS011;52977;44.816;20.538;2023-03-01T08:58:32;10.02;;;4.53;;
66175;SDS011;52977;44.816;20.538;2023-03-01T09:00:59;9.60;;;3.95;;
66175;SDS011;52977;44.816;20.538;2023-03-01T09:03:26;11.02;;;4.60;;
66175;SDS011;52977;44.816;20.538;2023-03-01T09:05:52;11.30;;;4.53;;
66175;SDS011;52977;44.816;20.538;2023-03-01T09:08:25;10.00;;;4.10;;
66175;SDS011;52977;44.816;20.538;2023-03-01T09:10:51;8.80;;;4.32;;
66175;SDS011;52977;44.816;20.538;2023-03-01T09:13:18;9.82;;;4.35;;
66175;SDS011;52977;44.816;20.538;2023-03-01T09:15:44;11.73;;;4.80;;
66175;SDS011;52977;44.816;20.538;2023-03-01T09:18:10;7.38;;;3.70;;
66175;SDS011;52977;44.816;20.538;2023-03-01T09:20:37;11.98;;;4.30;;
66175;SDS011;52977;44.816;20.538;2023-03-01T09:23:03;10.75;;;4.25;;
66175;SDS011;52977;44.816;20.538;2023-03-01T09:25:29;9.70;;;4.22;;
66175;SDS011;52977;44.816;20.538;2023-03-01T09:27:56;9.48;;;3.85;;
66175;SDS011;52977;44.816;20.538;2023-03-01T09:30:22;12.88;;;4.22;;
66175;SDS011;52977;44.816;20.538;2023-03-01T09:32:49;9.05;;;4.20;;
66175;SDS011;52977;44.816;20.538;2023-03-01T09:35:16;14.68;;;4.10;;
66175;SDS011;52977;44.816;20.538;2023-03-01T09:37:42;11.32;;;4.53;;
66175;SDS011;52977;44.816;20.538;2023-03-01T09:40:19;10.43;;;4.50;;
66175;SDS011;52977;44.816;20.538;2023-03-01T09:43:05;7.82;;;3.60;;
66175;SDS011;52977;44.816;20.538;2023-03-01T09:45:40;8.30;;;3.65;;
66175;SDS011;52977;44.816;20.538;2023-03-01T09:48:22;7.97;;;3.42;;
66175;SDS011;52977;44.816;20.538;2023-03-01T09:50:52;10.23;;;4.00;;
66175;SDS011;52977;44.816;20.538;2023-03-01T09:53:20;8.85;;;3.75;;
66175;SDS011;52977;44.816;20.538;2023-03-01T09:56:00;8.80;;;4.03;;
66175;SDS011;52977;44.816;20.538;2023-03-01T10:01:04;8.27;;;3.78;;
66175;SDS011;52977;44.816;20.538;2023-03-01T10:03:43;8.07;;;4.07;;
66175;SDS011;52977;44.816;20.538;2023-03-01T10:06:23;10.90;;;3.83;;
66175;SDS011;52977;44.816;20.538;2023-03-01T10:09:11;9.68;;;4.05;;
66175;SDS011;52977;44.816;20.538;2023-03-01T10:11:47;7.35;;;3.65;;
66175;SDS011;52977;44.816;20.538;2023-03-01T10:17:19;8.40;;;3.97;;
66175;SDS011;52977;44.816;20.538;2023-03-01T10:19:48;7.80;;;3.35;;
66175;SDS011;52977;44.816;20.538;2023-03-01T10:22:18;8.95;;;3.80;;
66175;SDS011;52977;44.816;20.538;2023-03-01T10:24:47;11.52;;;3.97;;
66175;SDS011;52977;44.816;20.538;2023-03-01T10:27:24;11.63;;;4.20;;
66175;SDS011;52977;44.816;20.538;2023-03-01T10:33:22;10.05;;;3.90;;
66175;SDS011;52977;44.816;20.538;2023-03-01T10:35:53;9.93;;;3.80;;
66175;SDS011;52977;44.816;20.538;2023-03-01T10:38:20;9.38;;;3.65;;
66175;SDS011;52977;44.816;20.538;2023-03-01T10:41:04;11.25;;;4.03;;
66175;SDS011;52977;44.816;20.538;2023-03-01T10:43:40;9.75;;;3.50;;
66175;SDS011;52977;44.816;20.538;2023-03-01T10:46:27;6.07;;;2.70;;
66175;SDS011;52977;44.816;20.538;2023-03-01T10:51:48;9.80;;;3.72;;
66175;SDS011;52977;44.816;20.538;2023-03-01T10:54:30;8.55;;;3.75;;
66175;SDS011;52977;44.816;20.538;2023-03-01T10:57:03;6.70;;;3.20;;
66175;SDS011;52977;44.816;20.538;2023-03-01T10:59:35;6.82;;;3.33;;
66175;SDS011;52977;44.816;20.538;2023-03-01T11:02:16;7.30;;;3.60;;
66175;SDS011;52977;44.816;20.538;2023-03-01T11:07:28;7.60;;;3.33;;
66175;SDS011;52977;44.816;20.538;2023-03-01T11:09:55;11.05;;;3.63;;
66175;SDS011;52977;44.816;20.538;2023-03-01T11:12:21;14.10;;;3.38;;
66175;SDS011;52977;44.816;20.538;2023-03-01T11:14:48;9.43;;;4.00;;
66175;SDS011;52977;44.816;20.538;2023-03-01T11:19:44;6.85;;;3.30;;
66175;SDS011;52977;44.816;20.538;2023-03-01T11:22:26;8.32;;;3.88;;
66175;SDS011;52977;44.816;20.538;2023-03-01T11:24:53;10.38;;;3.92;;
66175;SDS011;52977;44.816;20.538;2023-03-01T11:27:41;8.70;;;3.50;;
66175;SDS011;52977;44.816;20.538;2023-03-01T11:30:15;8.82;;;3.58;;
66175;SDS011;52977;44.816;20.538;2023-03-01T11:32:47;12.68;;;3.70;;
66175;SDS011;52977;44.816;20.538;2023-03-01T11:35:29;12.45;;;3.17;;
66175;SDS011;52977;44.816;20.538;2023-03-01T11:40:41;9.20;;;3.95;;
66175;SDS011;52977;44.816;20.538;2023-03-01T11:57:36;7.35;;;3.38;;
66175;SDS011;52977;44.816;20.538;2023-03-01T12:03:21;9.20;;;3.67;;
66175;SDS011;52977;44.816;20.538;2023-03-01T12:08:45;6.93;;;3.47;;
66175;SDS011;52977;44.816;20.538;2023-03-01T12:17:02;8.63;;;3.45;;
66175;SDS011;52977;44.816;20.538;2023-03-01T12:19:34;8.20;;;3.80;;
66175;SDS011;52977;44.816;20.538;2023-03-01T12:22:21;10.52;;;3.20;;
66175;SDS011;52977;44.816;20.538;2023-03-01T12:25:21;7.10;;;3.88;;
66175;SDS011;52977;44.816;20.538;2023-03-01T12:30:55;7.25;;;2.72;;
66175;SDS011;52977;44.816;20.538;2023-03-01T12:39:10;11.55;;;3.75;;
66175;SDS011;52977;44.816;20.538;2023-03-01T12:50:40;8.02;;;3.30;;
66175;SDS011;52977;44.816;20.538;2023-03-01T12:53:28;10.68;;;4.20;;
66175;SDS011;52977;44.816;20.538;2023-03-01T12:56:01;9.13;;;4.00;;
66175;SDS011;52977;44.816;20.538;2023-03-01T13:09:39;8.02;;;2.95;;
66175;SDS011;52977;44.816;20.538;2023-03-01T13:20:52;10.00;;;3.83;;
66175;SDS011;52977;44.816;20.538;2023-03-01T13:23:28;7.53;;;3.30;;
66175;SDS011;52977;44.816;20.538;2023-03-01T13:31:02;6.57;;;3.15;;
66175;SDS011;52977;44.816;20.538;2023-03-01T13:33:54;9.15;;;3.10;;
66175;SDS011;52977;44.816;20.538;2023-03-01T13:41:59;7.13;;;3.08;;
66175;SDS011;52977;44.816;20.538;2023-03-01T13:47:22;10.50;;;4.10;;
66175;SDS011;52977;44.816;20.538;2023-03-01T13:49:49;7.97;;;3.53;;
66175;SDS011;52977;44.816;20.538;2023-03-01T13:58:25;15.32;;;3.38;;
66175;SDS011;52977;44.816;20.538;2023-03-01T14:00:59;8.95;;;4.03;;
66175;SDS011;52977;44.816;20.538;2023-03-01T14:03:27;9.85;;;3.92;;
66175;SDS011;52977;44.816;20.538;2023-03-01T14:08:35;7.63;;;3.60;;
66175;SDS011;52977;44.816;20.538;2023-03-01T14:19:24;12.88;;;3.92;;
66175;SDS011;52977;44.816;20.538;2023-03-01T14:22:04;10.88;;;3.88;;
66175;SDS011;52977;44.816;20.538;2023-03-01T14:24:44;11.48;;;4.20;;
66175;SDS011;52977;44.816;20.538;2023-03-01T14:27:15;11.07;;;4.55;;
66175;SDS011;52977;44.816;20.538;2023-03-01T14:29:42;11.95;;;4.35;;
66175;SDS011;52977;44.816;20.538;2023-03-01T14:32:11;9.00;;;4.28;;
66175;SDS011;52977;44.816;20.538;2023-03-01T14:34:46;9.93;;;4.30;;
66175;SDS011;52977;44.816;20.538;2023-03-01T14:37:30;12.77;;;4.63;;
66175;SDS011;52977;44.816;20.538;2023-03-01T14:39:58;10.27;;;4.15;;
66175;SDS011;52977;44.816;20.538;2023-03-01T14:42:28;11.43;;;4.35;;
66175;SDS011;52977;44.816;20.538;2023-03-01T14:45:00;10.98;;;4.43;;
66175;SDS011;52977;44.816;20.538;2023-03-01T14:47:31;12.40;;;5.10;;
66175;SDS011;52977;44.816;20.538;2023-03-01T14:52:30;10.43;;;4.28;;
66175;SDS011;52977;44.816;20.538;2023-03-01T14:55:06;10.88;;;4.75;;
66175;SDS011;52977;44.816;20.538;2023-03-01T14:57:55;15.50;;;4.75;;
66175;SDS011;52977;44.816;20.538;2023-03-01T15:00:23;14.40;;;5.53;;
66175;SDS011;52977;44.816;20.538;2023-03-01T15:02:53;12.55;;;5.40;;
66175;SDS011;52977;44.816;20.538;2023-03-01T15:05:26;14.40;;;5.80;;
66175;SDS011;52977;44.816;20.538;2023-03-01T15:07:57;12.73;;;5.22;;
66175;SDS011;52977;44.816;20.538;2023-03-01T15:10:25;13.40;;;6.00;;
66175;SDS011;52977;44.816;20.538;2023-03-01T15:13:09;17.15;;;6.30;;
66175;SDS011;52977;44.816;20.538;2023-03-01T15:15:44;14.80;;;6.05;;
66175;SDS011;52977;44.816;20.538;2023-03-01T15:18:15;15.95;;;6.65;;
66175;SDS011;52977;44.816;20.538;2023-03-01T15:20:47;14.27;;;5.97;;
66175;SDS011;52977;44.816;20.538;2023-03-01T15:23:18;13.90;;;5.75;;
66175;SDS011;52977;44.816;20.538;2023-03-01T15:25:53;17.17;;;6.43;;
66175;SDS011;52977;44.816;20.538;2023-03-01T15:28:25;13.45;;;5.85;;
66175;SDS011;52977;44.816;20.538;2023-03-01T15:30:58;14.95;;;5.90;;
66175;SDS011;52977;44.816;20.538;2023-03-01T15:33:32;14.60;;;6.25;;
66175;SDS011;52977;44.816;20.538;2023-03-01T15:36:02;15.40;;;6.43;;
66175;SDS011;52977;44.816;20.538;2023-03-01T15:38:53;16.05;;;6.85;;
66175;SDS011;52977;44.816;20.538;2023-03-01T15:41:22;15.02;;;6.63;;
66175;SDS011;52977;44.816;20.538;2023-03-01T15:43:54;19.23;;;7.57;;
66175;SDS011;52977;44.816;20.538;2023-03-01T15:46:23;20.90;;;6.82;;
66175;SDS011;52977;44.816;20.538;2023-03-01T15:48:59;14.52;;;5.78;;
66175;SDS011;52977;44.816;20.538;2023-03-01T15:51:34;12.38;;;5.05;;
66175;SDS011;52977;44.816;20.538;2023-03-01T15:54:05;13.65;;;6.15;;
66175;SDS011;52977;44.816;20.538;2023-03-01T15:56:38;18.63;;;6.88;;
66175;SDS011;52977;44.816;20.538;2023-03-01T15:59:04;13.18;;;6.32;;
66175;SDS011;52977;44.816;20.538;2023-03-01T16:01:32;15.57;;;6.80;;
66175;SDS011;52977;44.816;20.538;2023-03-01T16:04:00;15.63;;;6.57;;
66175;SDS011;52977;44.816;20.538;2023-03-01T16:06:26;15.10;;;6.10;;
66175;SDS011;52977;44.816;20.538;2023-03-01T16:08:52;13.88;;;6.50;;
66175;SDS011;52977;44.816;20.538;2023-03-01T16:11:19;18.98;;;7.68;;
66175;SDS011;52977;44.816;20.538;2023-03-01T16:13:46;18.33;;;6.72;;
66175;SDS011;52977;44.816;20.538;2023-03-01T16:16:14;18.70;;;7.38;;
66175;SDS011;52977;44.816;20.538;2023-03-01T16:18:43;14.52;;;6.13;;
66175;SDS011;52977;44.816;20.538;2023-03-01T16:21:21;18.05;;;7.40;;
66175;SDS011;52977;44.816;20.538;2023-03-01T16:23:51;19.63;;;6.90;;
66175;SDS011;52977;44.816;20.538;2023-03-01T16:26:18;16.55;;;6.80;;
66175;SDS011;52977;44.816;20.538;2023-03-01T16:28:45;18.20;;;7.07;;
66175;SDS011;52977;44.816;20.538;2023-03-01T16:31:11;15.63;;;6.22;;
66175;SDS011;52977;44.816;20.538;2023-03-01T16:33:43;20.25;;;6.82;;
66175;SDS011;52977;44.816;20.538;2023-03-01T16:36:16;14.40;;;6.68;;
66175;SDS011;52977;44.816;20.538;2023-03-01T16:38:43;16.83;;;6.28;;
66175;SDS011;52977;44.816;20.538;2023-03-01T16:41:13;17.15;;;7.72;;
66175;SDS011;52977;44.816;20.538;2023-03-01T16:43:41;20.85;;;8.10;;
66175;SDS011;52977;44.816;20.538;2023-03-01T16:46:19;19.50;;;7.03;;
66175;SDS011;52977;44.816;20.538;2023-03-01T16:48:49;19.88;;;7.72;;
66175;SDS011;52977;44.816;20.538;2023-03-01T16:51:16;16.83;;;6.65;;